createdAt,value
2023-09-06T00:00:47.605Z,100.00
2023-09-06T00:03:00.392Z,100.00
2023-09-06T00:04:56.370Z,100.00
2023-09-06T00:06:53.630Z,100.00
2023-09-06T00:08:46.861Z,100.00
2023-09-06T00:10:42.462Z,100.00
2023-09-06T00:12:37.881Z,100.00
2023-09-06T00:14:38.227Z,100.00
2023-09-06T00:16:33.716Z,100.00
2023-09-06T00:18:29.098Z,100.00
2023-09-06T00:20:22.218Z,100.00
2023-09-06T00:22:21.447Z,100.00
2023-09-06T00:24:15.936Z,100.00
2023-09-06T00:26:11.365Z,100.00
2023-09-06T00:28:05.670Z,100.00
2023-09-06T00:30:03.341Z,100.00
2023-09-06T00:31:58.851Z,100.00
2023-09-06T00:33:54.009Z,100.00
2023-09-06T00:35:49.785Z,100.00
2023-09-06T00:37:45.151Z,100.00
2023-09-06T00:39:40.534Z,100.00
2023-09-06T00:41:36.226Z,100.00
2023-09-06T00:43:30.202Z,100.00
2023-09-06T00:45:28.192Z,100.00
2023-09-06T00:47:23.975Z,100.00
2023-09-06T00:49:19.337Z,100.00
2023-09-06T00:51:15.065Z,100.00
2023-09-06T00:53:08.679Z,100.00
2023-09-06T00:55:04.689Z,100.00
2023-09-06T00:57:00.588Z,100.00
2023-09-06T00:58:56.274Z,100.00
2023-09-06T01:00:52.049Z,100.00
2023-09-06T01:02:48.661Z,100.00
2023-09-06T01:04:44.949Z,100.00
2023-09-06T01:06:44.163Z,100.00
2023-09-06T01:08:43.382Z,100.00
2023-09-06T01:10:36.205Z,100.00
2023-09-06T01:12:32.264Z,100.00
2023-09-06T01:14:27.682Z,100.00
2023-09-06T01:16:27.823Z,100.00
2023-09-06T01:18:26.452Z,100.00
2023-09-06T01:20:32.767Z,100.00
2023-09-06T01:22:35.528Z,100.00
2023-09-06T01:24:33.616Z,100.00
2023-09-06T01:26:30.073Z,100.00
2023-09-06T01:28:28.640Z,100.00
2023-09-06T01:30:24.345Z,100.00
2023-09-06T01:32:20.350Z,100.00
2023-09-06T01:34:12.888Z,100.00
2023-09-06T01:36:08.623Z,100.00
2023-09-06T01:38:01.452Z,100.00
2023-09-06T01:39:59.183Z,100.00
2023-09-06T01:41:52.067Z,100.00
2023-09-06T01:43:47.448Z,100.00
2023-09-06T01:45:52.277Z,100.00
2023-09-06T01:47:49.543Z,100.00
2023-09-06T01:49:46.383Z,100.00
2023-09-06T01:51:41.780Z,100.00
2023-09-06T01:53:36.854Z,100.00
2023-09-06T01:55:31.986Z,100.00
2023-09-06T01:57:27.397Z,100.00
2023-09-06T01:59:22.449Z,100.00
2023-09-06T02:01:15.447Z,100.00
2023-09-06T02:03:11.820Z,100.00
2023-09-06T02:05:04.700Z,100.00
2023-09-06T02:07:00.163Z,100.00
2023-09-06T02:08:55.255Z,100.00
2023-09-06T02:10:52.884Z,100.00
2023-09-06T02:12:46.136Z,100.00
2023-09-06T02:14:41.294Z,100.00
2023-09-06T02:16:36.370Z,100.00
2023-09-06T02:18:32.086Z,100.00
2023-09-06T02:20:25.910Z,100.00
2023-09-06T02:22:21.538Z,100.00
2023-09-06T02:24:17.121Z,100.00
2023-09-06T02:26:14.967Z,100.00
2023-09-06T02:28:10.390Z,100.00
2023-09-06T02:30:06.231Z,100.00
2023-09-06T02:32:01.536Z,100.00
2023-09-06T02:33:54.597Z,100.00
2023-09-06T02:35:50.974Z,100.00
2023-09-06T02:37:43.535Z,100.00
2023-09-06T02:39:39.930Z,100.00
2023-09-06T02:41:37.585Z,100.00
2023-09-06T02:43:33.211Z,100.00
2023-09-06T02:45:38.144Z,100.00
2023-09-06T02:47:52.338Z,100.00
2023-09-06T02:49:49.260Z,100.00
2023-09-06T02:51:48.290Z,100.00
2023-09-06T02:53:45.558Z,100.00
2023-09-06T02:55:38.547Z,100.00
2023-09-06T02:57:36.490Z,100.00
2023-09-06T02:59:29.538Z,100.00
2023-09-06T03:01:24.752Z,100.00
2023-09-06T03:03:17.623Z,100.00
2023-09-06T03:05:18.865Z,100.00
2023-09-06T03:07:16.385Z,100.00
2023-09-06T03:09:11.921Z,100.00
2023-09-06T03:11:08.731Z,100.00
2023-09-06T03:13:06.911Z,100.00
2023-09-06T03:15:02.355Z,100.00
2023-09-06T03:16:54.899Z,100.00
2023-09-06T03:18:50.482Z,100.00
2023-09-06T03:20:46.832Z,100.00
2023-09-06T03:22:39.537Z,100.00
2023-09-06T03:24:34.669Z,100.00
2023-09-06T03:26:30.569Z,100.00
2023-09-06T03:28:30.106Z,100.00
2023-09-06T03:30:25.583Z,100.00
2023-09-06T03:32:22.189Z,100.00
2023-09-06T03:34:17.589Z,100.00
2023-09-06T03:36:14.058Z,100.00
2023-09-06T03:38:10.694Z,100.00
2023-09-06T03:40:13.942Z,100.00
2023-09-06T03:42:11.058Z,100.00
2023-09-06T03:44:06.320Z,100.00
2023-09-06T03:46:06.394Z,100.00
2023-09-06T03:47:59.219Z,100.00
2023-09-06T03:49:54.338Z,100.00
2023-09-06T03:51:50.028Z,100.00
2023-09-06T03:53:47.814Z,100.00
2023-09-06T03:55:43.199Z,100.00
2023-09-06T03:57:38.597Z,100.00
2023-09-06T03:59:37.207Z,100.00
2023-09-06T04:01:34.391Z,100.00
2023-09-06T04:03:28.163Z,100.00
2023-09-06T04:05:27.145Z,100.00
2023-09-06T04:07:26.815Z,100.00
2023-09-06T04:09:28.948Z,100.00
2023-09-06T04:11:21.854Z,100.00
2023-09-06T04:13:18.126Z,100.00
2023-09-06T04:15:14.328Z,100.00
2023-09-06T04:17:09.813Z,100.00
2023-09-06T04:19:06.579Z,100.00
2023-09-06T04:21:01.528Z,100.00
2023-09-06T04:22:57.370Z,100.00
2023-09-06T04:24:52.411Z,100.00
2023-09-06T04:26:50.223Z,100.00
2023-09-06T04:28:42.814Z,100.00
2023-09-06T04:30:42.106Z,100.00
2023-09-06T04:32:35.790Z,100.00
2023-09-06T04:34:30.828Z,100.00
2023-09-06T04:36:23.913Z,100.00
2023-09-06T04:38:20.840Z,100.00
2023-09-06T04:40:20.591Z,100.00
2023-09-06T04:42:13.432Z,100.00
2023-09-06T04:44:11.458Z,100.00
2023-09-06T04:46:09.878Z,100.00
2023-09-06T04:48:05.081Z,100.00
2023-09-06T04:49:57.695Z,100.00
2023-09-06T04:51:54.095Z,100.00
2023-09-06T04:53:50.296Z,100.00
2023-09-06T04:55:45.966Z,100.00
2023-09-06T04:57:38.441Z,100.00
2023-09-06T04:59:34.739Z,100.00
2023-09-06T05:01:32.852Z,100.00
2023-09-06T05:03:28.054Z,100.00
2023-09-06T05:05:23.564Z,100.00
2023-09-06T05:07:16.589Z,100.00
2023-09-06T05:09:12.079Z,100.00
2023-09-06T05:11:08.081Z,100.00
2023-09-06T05:13:00.572Z,100.00
2023-09-06T05:14:57.203Z,100.00
2023-09-06T05:16:55.243Z,100.00
2023-09-06T05:18:50.422Z,100.00
2023-09-06T05:20:46.404Z,100.00
2023-09-06T05:22:38.910Z,100.00
2023-09-06T05:24:33.996Z,100.00
2023-09-06T05:26:30.041Z,100.00
2023-09-06T05:28:25.211Z,100.00
2023-09-06T05:30:20.792Z,100.00
2023-09-06T05:32:20.215Z,100.00
2023-09-06T05:34:15.307Z,100.00
2023-09-06T05:36:10.699Z,100.00
2023-09-06T05:38:07.146Z,100.00
2023-09-06T05:40:00.052Z,100.00
2023-09-06T05:41:57.957Z,100.00
2023-09-06T05:43:53.277Z,100.00
2023-09-06T05:45:49.138Z,100.00
2023-09-06T05:47:49.326Z,100.00
2023-09-06T05:49:48.207Z,100.00
2023-09-06T05:51:43.700Z,100.00
2023-09-06T05:53:38.936Z,100.00
2023-09-06T05:55:34.388Z,100.00
2023-09-06T05:57:29.599Z,100.00
2023-09-06T05:59:24.756Z,100.00
2023-09-06T06:01:19.229Z,100.00
2023-09-06T06:03:16.977Z,100.00
2023-09-06T06:05:13.521Z,100.00
2023-09-06T06:07:09.254Z,100.00
2023-09-06T06:09:05.265Z,100.00
2023-09-06T06:11:02.057Z,100.00
2023-09-06T06:12:57.412Z,100.00
2023-09-06T06:14:54.021Z,100.00
2023-09-06T06:16:49.197Z,100.00
2023-09-06T06:18:48.652Z,100.00
2023-09-06T06:20:44.619Z,100.00
2023-09-06T06:22:41.844Z,100.00
2023-09-06T06:24:35.928Z,100.00
2023-09-06T06:26:31.041Z,100.00
2023-09-06T06:28:26.296Z,100.00
2023-09-06T06:30:22.207Z,100.00
2023-09-06T06:32:14.773Z,100.00
2023-09-06T06:34:15.338Z,100.00
2023-09-06T06:36:10.846Z,100.00
2023-09-06T06:38:06.026Z,100.00
2023-09-06T06:40:02.557Z,100.00
2023-09-06T06:41:57.610Z,100.00
2023-09-06T06:43:53.624Z,100.00
2023-09-06T06:45:50.626Z,100.00
2023-09-06T06:47:45.777Z,100.00
2023-09-06T06:49:44.708Z,100.00
2023-09-06T06:51:43.005Z,100.00
2023-09-06T06:53:36.109Z,100.00
2023-09-06T06:55:31.660Z,100.00
2023-09-06T06:57:26.761Z,100.00
2023-09-06T06:59:21.873Z,100.00
2023-09-06T07:01:14.805Z,100.00
2023-09-06T07:03:11.280Z,100.00
2023-09-06T07:05:09.630Z,100.00
2023-09-06T07:07:04.991Z,100.00
2023-09-06T07:09:01.031Z,100.00
2023-09-06T07:10:53.535Z,100.00
2023-09-06T07:12:49.697Z,100.00
2023-09-06T07:14:44.768Z,100.00
2023-09-06T07:16:41.136Z,100.00
2023-09-06T07:18:33.642Z,100.00
2023-09-06T07:20:31.294Z,100.00
2023-09-06T07:22:26.716Z,100.00
2023-09-06T07:24:21.776Z,100.00
2023-09-06T07:26:17.310Z,100.00
2023-09-06T07:28:09.823Z,100.00
2023-09-06T07:30:04.916Z,100.00
2023-09-06T07:32:00.319Z,100.00
2023-09-06T07:33:55.767Z,100.00
2023-09-06T07:35:50.938Z,100.00
2023-09-06T07:37:46.614Z,100.00
2023-09-06T07:39:41.692Z,100.00
2023-09-06T07:41:34.557Z,100.00
2023-09-06T07:43:30.057Z,100.00
2023-09-06T07:45:25.310Z,100.00
2023-09-06T07:47:20.727Z,100.00
2023-09-06T07:49:13.514Z,100.00
2023-09-06T07:51:13.490Z,100.00
2023-09-06T07:53:10.014Z,100.00
2023-09-06T07:55:05.429Z,100.00
2023-09-06T07:57:00.758Z,100.00
2023-09-06T07:58:56.488Z,100.00
2023-09-06T08:01:06.159Z,100.00
2023-09-06T08:03:07.055Z,100.00
2023-09-06T08:05:02.802Z,100.00
2023-09-06T08:07:01.151Z,100.00
2023-09-06T08:08:54.368Z,100.00
2023-09-06T08:10:49.987Z,100.00
2023-09-06T08:12:42.912Z,100.00
2023-09-06T08:14:40.326Z,100.00
2023-09-06T08:16:36.149Z,100.00
2023-09-06T08:18:30.461Z,100.00
2023-09-06T08:20:26.282Z,100.00
2023-09-06T08:22:35.585Z,100.00
2023-09-06T08:24:40.938Z,100.00
2023-09-06T08:26:38.389Z,100.00
2023-09-06T08:28:34.405Z,100.00
2023-09-06T08:30:29.845Z,100.00
2023-09-06T08:32:23.074Z,100.00
2023-09-06T08:34:19.078Z,100.00
2023-09-06T08:36:14.588Z,100.00
2023-09-06T08:38:14.228Z,100.00
2023-09-06T08:40:11.777Z,100.00
2023-09-06T08:42:08.555Z,100.00
2023-09-06T08:44:07.765Z,100.00
2023-09-06T08:46:06.074Z,100.00
2023-09-06T08:48:02.417Z,100.00
2023-09-06T08:49:56.037Z,100.00
2023-09-06T08:51:51.996Z,100.00
2023-09-06T08:53:51.782Z,100.00
2023-09-06T08:55:48.153Z,100.00
2023-09-06T08:57:43.136Z,100.00
2023-09-06T08:59:38.576Z,100.00
2023-09-06T09:01:34.010Z,100.00
2023-09-06T09:03:29.970Z,100.00
2023-09-06T09:05:25.545Z,100.00
2023-09-06T09:07:19.789Z,100.00
2023-09-06T09:09:22.498Z,100.00
2023-09-06T09:11:19.898Z,100.00
2023-09-06T09:13:13.419Z,100.00
2023-09-06T09:15:21.264Z,100.00
2023-09-06T09:17:18.688Z,100.00
2023-09-06T09:19:14.152Z,100.00
2023-09-06T09:21:11.736Z,100.00
2023-09-06T09:23:07.774Z,100.00
2023-09-06T09:25:15.542Z,100.00
2023-09-06T09:27:11.678Z,100.00
2023-09-06T09:29:07.496Z,100.00
2023-09-06T09:31:00.273Z,100.00
2023-09-06T09:33:05.788Z,100.00
2023-09-06T09:34:58.860Z,99.79
2023-09-06T09:36:54.883Z,100.00
2023-09-06T09:38:52.611Z,100.00
2023-09-06T09:40:53.345Z,96.15
2023-09-06T09:42:56.747Z,99.39
2023-09-06T09:45:04.558Z,97.87
2023-09-06T09:46:58.640Z,89.73
2023-09-06T09:48:54.531Z,92.06
2023-09-06T09:50:55.575Z,91.41
2023-09-06T09:52:52.479Z,82.90
2023-09-06T09:54:52.960Z,79.78
2023-09-06T09:56:58.082Z,81.63
2023-09-06T09:58:57.168Z,83.26
2023-09-06T10:00:53.655Z,83.52
2023-09-06T10:02:52.545Z,78.55
2023-09-06T10:04:48.836Z,70.66
2023-09-06T10:06:44.892Z,72.90
2023-09-06T10:08:46.126Z,69.01
2023-09-06T10:10:44.955Z,67.60
2023-09-06T10:12:45.737Z,66.03
2023-09-06T10:14:46.107Z,64.15
2023-09-06T10:16:42.710Z,65.91
2023-09-06T10:18:41.786Z,65.80
2023-09-06T10:20:39.782Z,68.35
2023-09-06T10:22:35.590Z,69.83
2023-09-06T10:24:37.314Z,69.16
2023-09-06T10:26:38.396Z,62.79
2023-09-06T10:28:36.815Z,62.60
2023-09-06T10:30:46.934Z,66.54
2023-09-06T10:32:44.195Z,66.95
2023-09-06T10:34:47.253Z,65.07
2023-09-06T10:36:53.747Z,60.01
2023-09-06T10:39:19.547Z,55.62
2023-09-06T10:41:12.472Z,53.89
2023-09-06T10:43:09.303Z,52.82
2023-09-06T10:45:15.338Z,54.98
2023-09-06T10:47:30.062Z,52.14
2023-09-06T10:49:30.555Z,52.47
2023-09-06T10:51:28.830Z,52.55
2023-09-06T10:53:24.158Z,52.11
2023-09-06T10:55:20.021Z,50.57
2023-09-06T10:57:17.197Z,49.81
2023-09-06T10:59:21.092Z,48.41
2023-09-06T11:01:22.071Z,46.81
2023-09-06T11:03:34.956Z,45.63
2023-09-06T11:05:36.694Z,46.57
2023-09-06T11:07:49.137Z,48.03
2023-09-06T11:09:50.393Z,47.66
2023-09-06T11:11:46.560Z,47.68
2023-09-06T11:13:44.522Z,48.78
2023-09-06T11:15:38.010Z,42.24
2023-09-06T11:17:36.354Z,43.07
2023-09-06T11:19:30.490Z,42.91
2023-09-06T11:45:49.958Z,38.21
2023-09-06T12:04:29.948Z,36.93
2023-09-06T12:06:31.256Z,38.59
2023-09-06T12:08:46.623Z,40.08
2023-09-06T12:10:52.056Z,41.67
2023-09-06T12:13:08.976Z,39.25
2023-09-06T12:15:10.200Z,40.36
2023-09-06T12:17:09.437Z,41.61
2023-09-06T12:19:05.600Z,40.76
2023-09-06T12:21:10.489Z,40.47
2023-09-06T12:23:16.852Z,39.25
2023-09-06T12:25:13.117Z,39.12
2023-09-06T12:27:12.604Z,39.45
2023-09-06T12:29:15.463Z,37.32
2023-09-06T12:31:17.665Z,36.85
2023-09-06T12:33:35.684Z,34.88
2023-09-06T12:35:44.878Z,33.75
2023-09-06T12:37:52.710Z,33.49
2023-09-06T12:56:36.251Z,33.82
2023-09-06T13:03:16.497Z,34.14
2023-09-06T13:09:14.573Z,32.69
2023-09-06T13:23:35.501Z,31.47
2023-09-06T13:26:08.555Z,30.97
2023-09-06T13:46:17.072Z,31.64
2023-09-06T13:48:40.454Z,31.30
2023-09-06T13:54:01.599Z,28.87
2023-09-06T13:56:14.393Z,29.62
2023-09-06T13:58:13.193Z,28.86
2023-09-06T14:00:13.019Z,28.63
2023-09-06T14:02:18.593Z,28.93
2023-09-06T14:04:13.737Z,29.91
2023-09-06T14:06:27.329Z,27.99
2023-09-06T14:08:34.842Z,27.40
2023-09-06T14:10:32.389Z,28.36
2023-09-06T14:12:45.380Z,28.84
2023-09-06T14:14:41.056Z,28.04
2023-09-06T14:16:46.538Z,26.53
2023-09-06T14:18:51.065Z,27.32
2023-09-06T14:20:50.381Z,27.71
2023-09-06T14:22:45.987Z,27.58
2023-09-06T14:24:42.048Z,27.77
2023-09-06T14:26:38.918Z,27.64
2023-09-06T14:28:53.381Z,27.77
2023-09-06T14:31:26.555Z,27.66
2023-09-06T14:33:35.679Z,26.95
2023-09-06T14:36:12.869Z,26.28
2023-09-06T14:38:35.737Z,26.99
2023-09-06T14:40:46.343Z,27.42
2023-09-06T14:42:48.207Z,25.87
2023-09-06T14:44:46.572Z,25.89
2023-09-06T14:46:45.518Z,25.92
2023-09-06T14:48:41.698Z,26.14
2023-09-06T14:50:39.845Z,26.53
2023-09-06T14:52:35.112Z,26.94
2023-09-06T14:54:30.688Z,26.83
2023-09-06T14:56:27.351Z,26.69
2023-09-06T14:58:24.513Z,27.25
2023-09-06T15:00:21.361Z,27.90
2023-09-06T15:02:19.529Z,27.86
2023-09-06T15:04:15.728Z,27.99
2023-09-06T15:06:14.906Z,27.75
2023-09-06T15:08:10.462Z,27.48
2023-09-06T15:10:12.668Z,27.40
2023-09-06T15:12:09.459Z,26.97
2023-09-06T15:14:02.836Z,27.50
2023-09-06T15:15:58.745Z,26.85
2023-09-06T15:17:51.558Z,26.81
2023-09-06T15:19:48.596Z,27.25
2023-09-06T15:21:46.937Z,27.35
2023-09-06T15:23:44.132Z,26.51
2023-09-06T15:25:40.694Z,26.42
2023-09-06T15:27:34.015Z,26.60
2023-09-06T15:29:31.228Z,26.16
2023-09-06T15:31:43.047Z,26.51
2023-09-06T15:33:39.693Z,27.45
2023-09-06T15:35:35.294Z,27.34
2023-09-06T15:37:38.716Z,27.59
2023-09-06T15:39:43.044Z,27.88
2023-09-06T15:41:41.188Z,27.79
2023-09-06T15:43:51.928Z,27.91
2023-09-06T15:45:55.145Z,27.40
2023-09-06T15:47:51.312Z,27.16
2023-09-06T15:49:56.988Z,26.19
2023-09-06T15:51:59.320Z,26.95
2023-09-06T15:53:57.363Z,27.05
2023-09-06T15:55:55.798Z,26.55
2023-09-06T15:57:52.773Z,27.11
2023-09-06T15:59:48.321Z,27.17
2023-09-06T16:01:46.572Z,27.06
2023-09-06T16:03:45.421Z,27.67
2023-09-06T16:05:41.018Z,27.34
2023-09-06T16:07:37.534Z,27.48
2023-09-06T16:09:41.014Z,26.93
2023-09-06T16:11:38.380Z,27.27
2023-09-06T16:13:34.096Z,27.30
2023-09-06T16:15:28.383Z,27.37
2023-09-06T16:17:23.887Z,27.26
2023-09-06T16:19:19.906Z,27.71
2023-09-06T16:21:13.021Z,27.75
2023-09-06T16:23:08.246Z,27.86
2023-09-06T16:25:09.248Z,27.47
2023-09-06T16:27:05.184Z,28.06
2023-09-06T16:29:08.311Z,27.94
2023-09-06T16:31:05.819Z,27.24
2023-09-06T16:33:01.349Z,27.59
2023-09-06T16:34:57.058Z,27.47
2023-09-06T16:36:49.760Z,27.69
2023-09-06T16:38:46.133Z,27.73
2023-09-06T16:40:44.358Z,27.61
2023-09-06T16:42:39.940Z,27.77
2023-09-06T16:44:33.956Z,27.58
2023-09-06T16:46:30.332Z,27.86
2023-09-06T16:48:23.188Z,27.87
2023-09-06T16:50:21.408Z,28.37
2023-09-06T16:52:17.445Z,28.51
2023-09-06T16:54:12.817Z,27.93
2023-09-06T16:56:09.002Z,28.43
2023-09-06T16:58:08.132Z,28.40
2023-09-06T17:00:06.002Z,28.83
2023-09-06T17:02:01.672Z,28.97
2023-09-06T17:03:55.014Z,29.60
2023-09-06T17:05:50.666Z,29.61
2023-09-06T17:07:47.066Z,30.46
2023-09-06T17:09:42.715Z,30.37
2023-09-06T17:11:42.783Z,30.56
2023-09-06T17:13:37.998Z,30.66
2023-09-06T17:15:33.922Z,31.07
2023-09-06T17:17:57.978Z,30.99
2023-09-06T17:19:56.676Z,31.12
2023-09-06T17:21:52.108Z,31.32
2023-09-06T17:24:02.355Z,31.03
2023-09-06T17:26:08.544Z,31.61
2023-09-06T17:28:09.123Z,30.73
2023-09-06T17:30:12.060Z,31.50
2023-09-06T17:32:08.676Z,31.96
2023-09-06T17:34:04.500Z,31.90
2023-09-06T17:35:58.034Z,31.58
2023-09-06T17:37:56.217Z,31.95
2023-09-06T17:39:52.575Z,32.40
2023-09-06T17:41:49.925Z,32.81
2023-09-06T17:43:48.456Z,33.16
2023-09-06T17:45:41.914Z,33.14
2023-09-06T17:47:40.471Z,33.21
2023-09-06T17:49:36.307Z,33.52
2023-09-06T17:51:31.878Z,33.89
2023-09-06T17:53:28.344Z,33.80
2023-09-06T17:55:26.584Z,33.73
2023-09-06T17:57:22.870Z,33.83
2023-09-06T17:59:25.309Z,33.87
2023-09-06T18:01:23.105Z,34.15
2023-09-06T18:03:20.116Z,33.81
2023-09-06T18:05:15.751Z,34.02
2023-09-06T18:07:12.854Z,34.24
2023-09-06T18:09:10.361Z,34.30
2023-09-06T18:11:08.180Z,34.06
2023-09-06T18:13:04.403Z,34.80
2023-09-06T18:15:03.732Z,34.37
2023-09-06T18:16:59.845Z,34.65
2023-09-06T18:18:55.975Z,34.69
2023-09-06T18:20:48.759Z,35.51
2023-09-06T18:22:43.884Z,35.77
2023-09-06T18:24:41.421Z,35.89
2023-09-06T18:26:36.672Z,36.59
2023-09-06T18:28:32.809Z,36.12
2023-09-06T18:30:32.023Z,35.86
2023-09-06T18:32:24.574Z,36.30
2023-09-06T18:34:23.051Z,36.56
2023-09-06T18:36:18.853Z,36.23
2023-09-06T18:38:13.513Z,36.48
2023-09-06T18:40:14.740Z,36.75
2023-09-06T18:42:10.577Z,37.03
2023-09-06T18:44:07.500Z,36.94
2023-09-06T18:46:06.324Z,37.21
2023-09-06T18:47:59.412Z,37.77
2023-09-06T18:49:55.638Z,37.52
2023-09-06T18:52:11.679Z,37.57
2023-09-06T18:54:09.044Z,38.06
2023-09-06T18:56:02.795Z,37.97
2023-09-06T18:58:06.484Z,38.05
2023-09-06T18:59:59.376Z,38.64
2023-09-06T19:02:00.628Z,38.35
2023-09-06T19:04:10.724Z,38.47
2023-09-06T19:06:21.848Z,38.29
2023-09-06T19:27:05.058Z,40.09
2023-09-06T19:29:03.691Z,40.45
2023-09-06T19:31:10.190Z,40.73
2023-09-06T19:33:10.309Z,41.13
2023-09-06T19:35:12.176Z,41.14
2023-09-06T19:37:07.732Z,41.66
2023-09-06T19:39:01.192Z,42.12
2023-09-06T19:40:57.179Z,42.13
2023-09-06T19:42:56.069Z,42.45
2023-09-06T19:44:48.654Z,43.00
2023-09-06T19:46:43.862Z,43.36
2023-09-06T19:48:54.669Z,43.57
2023-09-06T19:50:55.087Z,44.01
2023-09-06T19:52:51.898Z,44.45
2023-09-06T19:54:45.132Z,44.67
2023-09-06T19:56:40.360Z,45.46
2023-09-06T19:58:36.349Z,45.70
2023-09-06T20:00:31.713Z,45.76
2023-09-06T20:02:24.743Z,46.07
2023-09-06T20:04:21.508Z,45.88
2023-09-06T20:06:16.995Z,46.17
2023-09-06T20:08:12.407Z,46.48
2023-09-06T20:10:09.415Z,46.22
2023-09-06T20:12:04.859Z,46.57
2023-09-06T20:14:03.419Z,46.96
2023-09-06T20:15:59.208Z,47.41
2023-09-06T20:17:56.166Z,48.16
2023-09-06T20:19:51.664Z,48.09
2023-09-06T20:21:47.445Z,48.61
2023-09-06T20:23:42.681Z,48.90
2023-09-06T20:25:36.222Z,49.63
2023-09-06T20:27:31.707Z,49.72
2023-09-06T20:29:29.728Z,50.39
2023-09-06T20:31:25.474Z,50.69
2023-09-06T20:33:23.038Z,50.89
2023-09-06T20:35:20.427Z,51.13
2023-09-06T20:37:16.185Z,51.62
2023-09-06T20:39:11.702Z,52.04
2023-09-06T20:41:09.662Z,52.53
2023-09-06T20:43:02.682Z,53.17
2023-09-06T20:45:00.739Z,53.69
2023-09-06T20:46:56.209Z,54.05
2023-09-06T20:48:49.329Z,55.82
2023-09-06T20:50:44.728Z,55.93
2023-09-06T20:52:39.876Z,56.41
2023-09-06T20:54:32.860Z,57.12
2023-09-06T20:56:28.802Z,57.95
2023-09-06T20:58:24.895Z,58.13
2023-09-06T21:00:21.783Z,57.93
2023-09-06T21:02:34.360Z,59.06
2023-09-06T21:05:31.881Z,59.88
2023-09-06T21:07:12.597Z,60.04
2023-09-06T21:10:03.840Z,60.13
2023-09-06T21:11:57.170Z,61.54
2023-09-06T21:13:52.791Z,62.46
2023-09-06T21:15:49.407Z,62.98
2023-09-06T21:17:44.988Z,63.38
2023-09-06T21:19:40.710Z,63.77
2023-09-06T21:21:33.301Z,64.41
2023-09-06T21:23:28.979Z,64.74
2023-09-06T21:25:24.190Z,65.27
2023-09-06T21:27:16.923Z,64.74
2023-09-06T21:29:25.938Z,63.93
2023-09-06T21:31:27.237Z,64.18
2023-09-06T21:33:22.796Z,64.43
2023-09-06T21:35:18.244Z,64.38
2023-09-06T21:37:10.704Z,63.61
2023-09-06T21:39:06.871Z,64.57
2023-09-06T21:41:02.819Z,65.12
2023-09-06T21:43:14.583Z,65.28
2023-09-06T21:45:14.294Z,66.01
2023-09-06T21:47:12.394Z,66.69
2023-09-06T21:49:05.097Z,66.70
2023-09-06T21:51:10.753Z,68.38
2023-09-06T21:53:07.789Z,68.50
2023-09-06T21:55:00.324Z,68.80
2023-09-06T21:56:55.933Z,69.47
2023-09-06T21:58:51.409Z,69.22
2023-09-06T22:00:46.646Z,69.86
2023-09-06T22:02:45.167Z,70.48
2023-09-06T22:04:40.875Z,71.08
2023-09-06T22:06:34.309Z,71.87
2023-09-06T22:08:29.933Z,73.17
2023-09-06T22:10:25.774Z,73.16
2023-09-06T22:12:18.410Z,73.66
2023-09-06T22:14:16.752Z,73.67
2023-09-06T22:16:12.173Z,74.24
2023-09-06T22:18:10.521Z,75.53
2023-09-06T22:20:06.771Z,76.23
2023-09-06T22:22:02.273Z,76.92
2023-09-06T22:23:54.845Z,77.19
2023-09-06T22:26:00.278Z,79.27
2023-09-06T22:27:58.546Z,81.39
2023-09-06T22:29:53.901Z,81.76
2023-09-06T22:31:47.590Z,83.57
2023-09-06T22:33:45.901Z,83.74
2023-09-06T22:35:41.035Z,85.25
2023-09-06T22:37:36.346Z,85.38
2023-09-06T22:39:31.823Z,85.99
2023-09-06T22:41:26.963Z,86.23
2023-09-06T22:43:22.391Z,87.48
2023-09-06T22:45:15.599Z,87.34
2023-09-06T22:47:12.277Z,88.04
2023-09-06T22:49:10.373Z,88.81
2023-09-06T22:51:06.206Z,88.66
2023-09-06T22:53:02.679Z,89.54
2023-09-06T22:54:58.289Z,90.50
2023-09-06T22:56:54.184Z,90.63
2023-09-06T22:58:46.796Z,91.17
2023-09-06T23:00:44.456Z,91.94
2023-09-06T23:02:40.082Z,92.51
2023-09-06T23:04:40.104Z,93.11
2023-09-06T23:06:33.431Z,93.98
2023-09-06T23:08:29.197Z,94.68
2023-09-06T23:10:25.356Z,95.22
2023-09-06T23:12:21.498Z,95.82
2023-09-06T23:14:18.770Z,96.41
2023-09-06T23:16:17.719Z,97.15
2023-09-06T23:18:13.385Z,97.46
2023-09-06T23:20:14.981Z,98.26
2023-09-06T23:22:13.633Z,99.00
2023-09-06T23:24:13.180Z,97.68
2023-09-06T23:26:09.694Z,98.41
2023-09-06T23:28:12.746Z,99.75
2023-09-06T23:30:17.520Z,99.58
2023-09-06T23:32:16.650Z,99.99
2023-09-06T23:34:11.388Z,100.00
2023-09-06T23:36:10.176Z,100.00
2023-09-06T23:38:08.541Z,100.00
2023-09-06T23:40:13.057Z,100.00
2023-09-06T23:42:11.322Z,100.00
2023-09-06T23:44:09.009Z,100.00
2023-09-06T23:46:05.611Z,100.00
2023-09-06T23:48:01.675Z,100.00
2023-09-06T23:49:54.541Z,100.00
2023-09-06T23:51:52.465Z,100.00
2023-09-06T23:53:45.590Z,100.00
2023-09-06T23:55:40.825Z,100.00
2023-09-06T23:57:33.454Z,100.00
2023-09-06T23:59:28.871Z,100.00
